createdAt,value
2023-03-01T00:01:10.048Z,103128.50
2023-03-01T00:03:56.739Z,103139.72
2023-03-01T00:06:43.803Z,103144.06
2023-03-01T00:09:29.719Z,103143.19
2023-03-01T00:12:15.473Z,103160.47
2023-03-01T00:15:01.306Z,103162.19
2023-03-01T00:17:48.463Z,103173.44
2023-03-01T00:20:34.166Z,103177.72
2023-03-01T00:23:19.842Z,103187.22
2023-03-01T00:26:07.455Z,103194.13
2023-03-01T00:28:53.806Z,103201.03
2023-03-01T00:31:39.514Z,103207.06
2023-03-01T00:34:26.590Z,103204.47
2023-03-01T00:37:12.498Z,103210.53
2023-03-01T00:39:59.121Z,103199.25
2023-03-01T00:42:45.030Z,103201.84
2023-03-01T00:45:31.876Z,103209.63
2023-03-01T00:48:18.143Z,103207.03
2023-03-01T00:51:09.326Z,103215.63
2023-03-01T00:53:55.798Z,103213.03
2023-03-01T00:56:41.724Z,103206.97
2023-03-01T00:59:27.557Z,103224.28
2023-03-01T01:02:13.356Z,103221.69
2023-03-01T01:04:59.154Z,103218.19
2023-03-01T01:07:46.459Z,103223.34
2023-03-01T01:10:32.554Z,103225.09
2023-03-01T01:13:18.279Z,103238.91
2023-03-01T01:16:04.336Z,103240.66
2023-03-01T01:18:49.968Z,103236.31
2023-03-01T01:21:35.698Z,103241.50
2023-03-01T01:24:22.984Z,103235.41
2023-03-01T01:27:09.166Z,103231.94
2023-03-01T01:29:55.115Z,103231.06
2023-03-01T01:32:40.850Z,103231.06
2023-03-01T01:35:26.617Z,103228.47
2023-03-01T01:38:12.439Z,103231.91
2023-03-01T01:40:59.621Z,103233.63
2023-03-01T01:43:45.813Z,103234.50
2023-03-01T01:46:32.781Z,103232.78
2023-03-01T01:49:26.426Z,103229.28
2023-03-01T01:52:13.445Z,103226.69
2023-03-01T01:54:59.931Z,103231.00
2023-03-01T01:57:48.070Z,103227.56
2023-03-01T02:00:34.000Z,103224.94
2023-03-01T02:03:21.142Z,103230.13
2023-03-01T02:06:08.669Z,103235.31
2023-03-01T02:08:54.719Z,103223.16
2023-03-01T02:11:40.527Z,103218.81
2023-03-01T02:14:27.636Z,103218.81
2023-03-01T02:17:13.535Z,103217.94
2023-03-01T02:20:02.578Z,103213.59
2023-03-01T02:22:48.647Z,103206.69
2023-03-01T02:25:40.189Z,103208.41
2023-03-01T02:28:32.951Z,103209.22
2023-03-01T02:31:37.405Z,103210.06
2023-03-01T02:34:26.030Z,103206.56
2023-03-01T02:37:15.805Z,103208.31
2023-03-01T02:40:01.909Z,103200.53
2023-03-01T02:42:49.235Z,103194.44
2023-03-01T02:45:36.717Z,103193.59
2023-03-01T02:48:22.943Z,103197.91
2023-03-01T02:51:12.244Z,103193.59
2023-03-01T02:54:00.778Z,103190.13
2023-03-01T02:56:49.092Z,103184.94
2023-03-01T02:59:40.206Z,103185.81
2023-03-01T03:02:37.625Z,103182.38
2023-03-01T03:05:49.752Z,103169.41
2023-03-01T03:08:36.175Z,103174.59
2023-03-01T03:11:22.267Z,103164.22
2023-03-01T03:14:13.458Z,103171.06
2023-03-01T03:17:01.281Z,103159.84
2023-03-01T03:19:48.454Z,103163.28
2023-03-01T03:22:34.943Z,103159.81
2023-03-01T03:25:21.464Z,103162.38
2023-03-01T03:28:10.384Z,103158.06
2023-03-01T03:30:56.174Z,103153.75
2023-03-01T03:33:41.908Z,103146.84
2023-03-01T03:36:29.496Z,103153.69
2023-03-01T03:39:15.790Z,103158.84
2023-03-01T03:42:01.566Z,103156.25
2023-03-01T03:44:47.347Z,103152.81
2023-03-01T03:47:33.138Z,103151.06
2023-03-01T03:50:19.156Z,103150.22
2023-03-01T03:53:07.608Z,103155.41
2023-03-01T03:55:53.812Z,103151.94
2023-03-01T03:58:39.547Z,103149.34
2023-03-01T04:01:25.552Z,103159.69
2023-03-01T04:04:11.433Z,103155.38
2023-03-01T04:06:57.296Z,103160.53
2023-03-01T04:09:44.480Z,103153.59
2023-03-01T04:12:30.366Z,103160.50
2023-03-01T04:15:16.227Z,103159.56
2023-03-01T04:18:02.185Z,103168.25
2023-03-01T04:20:48.487Z,103164.78
2023-03-01T04:23:34.367Z,103172.50
2023-03-01T04:26:21.841Z,103165.59
2023-03-01T04:29:07.850Z,103171.66
2023-03-01T04:31:54.378Z,103169.94
2023-03-01T04:34:40.762Z,103172.50
2023-03-01T04:37:26.554Z,103170.84
2023-03-01T04:40:17.323Z,103163.84
2023-03-01T04:43:04.686Z,103164.69
2023-03-01T04:45:50.670Z,103161.22
2023-03-01T04:48:37.174Z,103162.94
2023-03-01T04:51:23.004Z,103156.03
2023-03-01T04:54:11.194Z,103155.16
2023-03-01T04:56:57.228Z,103156.00
2023-03-01T04:59:44.947Z,103147.31
2023-03-01T05:02:30.927Z,103148.19
2023-03-01T05:05:17.273Z,103142.13
2023-03-01T05:08:03.914Z,103136.09
2023-03-01T05:10:51.019Z,103124.84
2023-03-01T05:13:36.985Z,103121.38
2023-03-01T05:16:24.417Z,103112.75
2023-03-01T05:19:16.045Z,103115.28
2023-03-01T05:22:05.678Z,103114.38
2023-03-01T05:24:51.551Z,103119.59
2023-03-01T05:27:37.492Z,103123.94
2023-03-01T05:30:23.449Z,103123.91
2023-03-01T05:33:14.283Z,103121.31
2023-03-01T05:36:01.649Z,103120.41
2023-03-01T05:38:47.422Z,103116.09
2023-03-01T05:41:33.167Z,103116.97
2023-03-01T05:44:18.993Z,103112.66
2023-03-01T05:47:04.754Z,103104.84
2023-03-01T05:49:51.763Z,103112.63
2023-03-01T05:52:37.534Z,103112.59
2023-03-01T05:55:23.289Z,103118.63
2023-03-01T05:58:09.543Z,103111.72
2023-03-01T06:00:57.073Z,103112.59
2023-03-01T06:03:43.520Z,103122.09
2023-03-01T06:06:31.358Z,103120.34
2023-03-01T06:09:17.416Z,103118.63
2023-03-01T06:12:03.244Z,103117.75
2023-03-01T06:14:49.202Z,103128.09
2023-03-01T06:17:38.169Z,103129.81
2023-03-01T06:20:24.497Z,103125.50
2023-03-01T06:23:11.559Z,103142.72
2023-03-01T06:25:57.309Z,103143.59
2023-03-01T06:28:43.265Z,103143.59
2023-03-01T06:31:29.116Z,103142.78
2023-03-01T06:34:15.009Z,103146.25
2023-03-01T06:37:00.710Z,103149.75
2023-03-01T06:39:47.790Z,103148.03
2023-03-01T06:42:33.832Z,103151.50
2023-03-01T06:45:19.964Z,103151.50
2023-03-01T06:48:06.170Z,103148.06
2023-03-01T06:50:52.662Z,103153.25
2023-03-01T06:53:38.863Z,103155.84
2023-03-01T06:56:26.073Z,103155.84
2023-03-01T06:59:12.234Z,103153.28
2023-03-01T07:01:57.961Z,103156.75
2023-03-01T07:04:43.801Z,103165.41
2023-03-01T07:07:29.419Z,103173.19
2023-03-01T07:10:15.246Z,103181.88
2023-03-01T07:13:02.310Z,103192.25
2023-03-01T07:15:48.119Z,103197.47
2023-03-01T07:18:34.360Z,103194.94
2023-03-01T07:21:20.195Z,103203.63
2023-03-01T07:24:06.639Z,103209.72
2023-03-01T07:26:52.659Z,103209.75
2023-03-01T07:29:39.680Z,103216.75
2023-03-01T07:32:25.653Z,103225.41
2023-03-01T07:35:11.570Z,103232.34
2023-03-01T07:37:57.830Z,103241.94
2023-03-01T07:40:43.710Z,103245.44
2023-03-01T07:43:30.466Z,103248.06
2023-03-01T07:46:18.696Z,103265.41
2023-03-01T07:49:05.513Z,103269.06
2023-03-01T07:51:51.562Z,103271.72
2023-03-01T07:54:37.360Z,103296.06
2023-03-01T07:57:23.057Z,103319.47
2023-03-01T08:00:09.700Z,103329.09
2023-03-01T08:03:02.571Z,103347.34
2023-03-01T08:05:48.505Z,103356.03
2023-03-01T08:08:34.958Z,103367.31
2023-03-01T08:11:20.734Z,103369.97
2023-03-01T08:14:07.519Z,103374.34
2023-03-01T08:16:53.687Z,103383.00
2023-03-01T08:19:40.743Z,103395.22
2023-03-01T08:22:26.381Z,103406.50
2023-03-01T08:25:12.362Z,103418.69
2023-03-01T08:27:57.949Z,103429.97
2023-03-01T08:30:43.812Z,103433.50
2023-03-01T08:33:30.191Z,103435.22
2023-03-01T08:36:17.963Z,103445.69
2023-03-01T08:39:04.011Z,103447.47
2023-03-01T08:41:49.852Z,103454.47
2023-03-01T08:44:36.376Z,103464.94
2023-03-01T08:47:22.174Z,103454.50
2023-03-01T08:50:08.281Z,103453.66
2023-03-01T08:52:55.525Z,103448.44
2023-03-01T08:55:41.281Z,103437.19
2023-03-01T08:58:27.069Z,103430.22
2023-03-01T09:01:13.298Z,103419.75
2023-03-01T09:03:59.615Z,103412.78
2023-03-01T09:06:45.586Z,103402.34
2023-03-01T09:09:32.789Z,103390.13
2023-03-01T09:12:18.613Z,103384.84
2023-03-01T09:15:04.642Z,103371.72
2023-03-01T09:17:50.757Z,103368.19
2023-03-01T09:20:36.596Z,103367.94
2023-03-01T09:23:22.386Z,103354.72
2023-03-01T09:26:10.329Z,103348.34
2023-03-01T09:28:57.045Z,103342.75
2023-03-01T09:31:42.880Z,103336.28
2023-03-01T09:34:28.677Z,103315.19
2023-03-01T09:37:15.868Z,103295.50
2023-03-01T09:40:01.618Z,103272.22
2023-03-01T09:42:50.247Z,103240.03
2023-03-01T09:45:36.336Z,103210.22
2023-03-01T09:48:24.427Z,103173.34
2023-03-01T09:51:11.159Z,103140.66
2023-03-01T09:53:57.943Z,103089.84
2023-03-01T09:56:46.407Z,103000.25
2023-03-01T09:59:35.011Z,102902.13
2023-03-01T10:02:24.042Z,102785.94
2023-03-01T10:05:16.265Z,102691.44
2023-03-01T10:08:04.785Z,102603.84
2023-03-01T10:10:50.905Z,102522.88
2023-03-01T10:13:39.835Z,102449.16
2023-03-01T10:16:28.319Z,102395.47
2023-03-01T10:19:16.161Z,102339.03
2023-03-01T10:22:02.987Z,102278.50
2023-03-01T10:24:48.770Z,102298.13
2023-03-01T10:27:37.399Z,102316.06
2023-03-01T10:30:24.887Z,102317.56
2023-03-01T10:33:14.258Z,102316.09
2023-03-01T10:36:00.279Z,102340.94
2023-03-01T10:38:50.440Z,102336.69
2023-03-01T10:41:36.376Z,102338.75
2023-03-01T10:44:36.629Z,102350.31
2023-03-01T10:47:24.215Z,102355.41
2023-03-01T10:50:19.915Z,102345.16
2023-03-01T10:53:06.157Z,102347.44
2023-03-01T10:55:58.366Z,102354.91
2023-03-01T10:58:58.316Z,102356.06
2023-03-01T11:01:44.225Z,102348.06
2023-03-01T11:04:30.382Z,102347.91
2023-03-01T11:07:17.414Z,102343.69
2023-03-01T11:10:07.416Z,102336.59
2023-03-01T11:12:53.856Z,102335.44
2023-03-01T11:15:39.875Z,102333.31
2023-03-01T11:18:40.559Z,102328.72
2023-03-01T11:21:33.298Z,102327.13
2023-03-01T11:24:31.322Z,102321.97
2023-03-01T11:27:20.943Z,102318.00
2023-03-01T11:30:07.904Z,102333.19
2023-03-01T11:32:55.571Z,102320.59
2023-03-01T11:35:44.314Z,102316.22
2023-03-01T11:38:30.991Z,102321.97
2023-03-01T11:41:19.058Z,102329.09
2023-03-01T11:44:05.335Z,102329.91
2023-03-01T11:46:53.586Z,102314.94
2023-03-01T11:49:50.247Z,102315.47
2023-03-01T11:52:38.088Z,102308.34
2023-03-01T11:55:29.623Z,102303.31
2023-03-01T11:58:29.229Z,102302.25
2023-03-01T12:01:18.038Z,102321.88
2023-03-01T12:04:37.249Z,102317.94
2023-03-01T12:07:24.574Z,102323.41
2023-03-01T12:10:21.877Z,102329.44
2023-03-01T12:13:15.908Z,102317.19
2023-03-01T12:16:09.277Z,102314.97
2023-03-01T12:18:58.522Z,102306.75
2023-03-01T12:21:51.412Z,102300.41
2023-03-01T12:24:52.208Z,102297.41
2023-03-01T12:27:53.015Z,102304.53
2023-03-01T12:30:41.825Z,102306.66
2023-03-01T12:33:31.253Z,102298.97
2023-03-01T12:36:35.083Z,102313.34
2023-03-01T12:39:32.241Z,102298.75
2023-03-01T12:42:19.725Z,102306.03
2023-03-01T12:45:26.648Z,102304.28
2023-03-01T12:48:17.590Z,102285.88
2023-03-01T12:51:05.491Z,102293.81
2023-03-01T12:53:51.658Z,102290.00
2023-03-01T12:56:39.027Z,102295.56
2023-03-01T12:59:27.265Z,102284.94
2023-03-01T13:02:15.625Z,102290.19
2023-03-01T13:05:18.897Z,102289.88
2023-03-01T13:08:08.089Z,102288.56
2023-03-01T13:10:55.365Z,102284.75
2023-03-01T13:13:41.451Z,102287.50
2023-03-01T13:16:45.937Z,102283.81
2023-03-01T13:19:33.191Z,102283.94
2023-03-01T13:22:29.746Z,102281.06
2023-03-01T13:25:18.760Z,102285.97
2023-03-01T13:28:32.015Z,102278.38
2023-03-01T13:31:36.855Z,102283.25
2023-03-01T13:34:41.772Z,102280.28
2023-03-01T13:37:38.228Z,102264.56
2023-03-01T13:40:42.749Z,102266.16
2023-03-01T13:43:34.021Z,102266.41
2023-03-01T13:46:20.370Z,102266.31
2023-03-01T13:49:06.392Z,102269.00
2023-03-01T13:51:53.197Z,102264.16
2023-03-01T13:54:38.978Z,102259.97
2023-03-01T13:57:27.027Z,102253.69
2023-03-01T14:00:27.656Z,102256.56
2023-03-01T14:03:15.170Z,102251.47
2023-03-01T14:06:13.222Z,102246.66
2023-03-01T14:09:05.171Z,102248.34
2023-03-01T14:11:57.580Z,102246.44
2023-03-01T14:14:44.420Z,102243.78
2023-03-01T14:17:37.912Z,102249.72
2023-03-01T14:20:24.746Z,102245.59
2023-03-01T14:23:11.280Z,102240.88
2023-03-01T14:25:57.669Z,102235.19
2023-03-01T14:28:44.027Z,102234.13
2023-03-01T14:31:52.073Z,102228.72
2023-03-01T14:34:40.509Z,102220.81
2023-03-01T14:37:26.844Z,102212.97
2023-03-01T14:40:21.474Z,102211.91
2023-03-01T14:43:10.595Z,102207.28
2023-03-01T14:45:56.483Z,102206.28
2023-03-01T14:48:42.295Z,102203.94
2023-03-01T14:51:29.382Z,102199.53
2023-03-01T14:54:20.554Z,102191.78
2023-03-01T14:57:06.689Z,102188.63
2023-03-01T14:59:53.823Z,102184.16
2023-03-01T15:02:40.419Z,102187.50
2023-03-01T15:05:27.782Z,102180.69
2023-03-01T15:08:18.844Z,102181.88
2023-03-01T15:11:08.647Z,102184.78
2023-03-01T15:13:55.278Z,102175.16
2023-03-01T15:16:42.174Z,102175.03
2023-03-01T15:19:28.350Z,102167.75
2023-03-01T15:22:15.544Z,102171.47
2023-03-01T15:25:02.921Z,102169.84
2023-03-01T15:27:48.914Z,102166.78
2023-03-01T15:30:39.045Z,102168.03
2023-03-01T15:33:30.408Z,102164.63
2023-03-01T15:36:32.933Z,102161.25
2023-03-01T15:39:44.677Z,102147.00
2023-03-01T15:42:41.267Z,102145.13
2023-03-01T15:45:28.744Z,102143.69
2023-03-01T15:48:16.489Z,102149.38
2023-03-01T15:51:03.322Z,102143.28
2023-03-01T15:53:54.535Z,102138.56
2023-03-01T15:56:45.369Z,102140.59
2023-03-01T15:59:32.737Z,102138.91
2023-03-01T16:02:18.389Z,102134.56
2023-03-01T16:05:04.265Z,102124.25
2023-03-01T16:07:50.025Z,102126.19
2023-03-01T16:10:36.002Z,102123.88
2023-03-01T16:13:22.023Z,102128.22
2023-03-01T16:16:10.286Z,102117.31
2023-03-01T16:18:56.791Z,102120.34
2023-03-01T16:21:43.151Z,102117.97
2023-03-01T16:24:29.075Z,102118.34
2023-03-01T16:27:16.415Z,102113.56
2023-03-01T16:30:02.192Z,102117.97
2023-03-01T16:32:49.669Z,102100.25
2023-03-01T16:35:36.022Z,102098.84
2023-03-01T16:38:22.553Z,102080.72
2023-03-01T16:41:08.742Z,102075.88
2023-03-01T16:43:54.676Z,102075.19
2023-03-01T16:46:41.206Z,102036.94
2023-03-01T16:49:28.418Z,102026.91
2023-03-01T16:52:14.234Z,102003.59
2023-03-01T16:55:00.051Z,102003.22
2023-03-01T16:57:45.792Z,101985.34
2023-03-01T17:00:31.527Z,101984.88
2023-03-01T17:03:18.048Z,101976.81
2023-03-01T17:06:06.388Z,101986.13
2023-03-01T17:08:52.559Z,101984.13
2023-03-01T17:11:38.244Z,101977.81
2023-03-01T17:14:24.206Z,101981.00
2023-03-01T17:17:10.390Z,101981.63
2023-03-01T17:19:56.287Z,101984.91
2023-03-01T17:22:43.819Z,101981.91
2023-03-01T17:25:29.572Z,101990.38
2023-03-01T17:28:15.609Z,101993.50
2023-03-01T17:31:02.022Z,101994.88
2023-03-01T17:33:47.978Z,101997.31
2023-03-01T17:36:41.572Z,101998.88
2023-03-01T17:39:35.869Z,102001.81
2023-03-01T17:42:21.899Z,102005.72
2023-03-01T17:45:08.383Z,101997.47
2023-03-01T17:47:54.502Z,102003.06
2023-03-01T17:50:41.194Z,102009.53
2023-03-01T17:53:27.171Z,102021.47
2023-03-01T17:56:14.326Z,102020.84
2023-03-01T17:59:00.122Z,102022.06
2023-03-01T18:01:46.170Z,102026.78
2023-03-01T18:04:33.186Z,102025.31
2023-03-01T18:07:19.207Z,102016.94
2023-03-01T18:10:05.642Z,102027.72
2023-03-01T18:12:53.333Z,102030.63
2023-03-01T18:15:39.074Z,102035.19
2023-03-01T18:18:24.782Z,102044.19
2023-03-01T18:21:10.418Z,102041.81
2023-03-01T18:23:56.180Z,102043.88
2023-03-01T18:26:42.382Z,102058.94
2023-03-01T18:29:29.622Z,102059.19
2023-03-01T18:32:15.467Z,102066.44
2023-03-01T18:35:01.288Z,102064.13
2023-03-01T18:37:47.035Z,102060.81
2023-03-01T18:40:33.429Z,102060.19
2023-03-01T18:43:19.244Z,102063.81
2023-03-01T18:46:06.497Z,102063.34
2023-03-01T18:48:53.024Z,102061.72
2023-03-01T18:51:39.213Z,102054.06
2023-03-01T18:54:25.161Z,102054.34
2023-03-01T18:57:11.115Z,102053.66
2023-03-01T18:59:56.831Z,102055.56
2023-03-01T19:02:43.854Z,102051.41
2023-03-01T19:05:29.995Z,102060.31
2023-03-01T19:08:15.718Z,102056.13
2023-03-01T19:11:02.299Z,102054.53
2023-03-01T19:13:51.615Z,102045.97
2023-03-01T19:16:37.457Z,102052.22
2023-03-01T19:19:25.230Z,102049.75
2023-03-01T19:22:11.014Z,102047.31
2023-03-01T19:24:56.814Z,102047.38
2023-03-01T19:27:42.789Z,102057.91
2023-03-01T19:30:28.714Z,102065.00
2023-03-01T19:33:14.535Z,102063.44
2023-03-01T19:36:01.854Z,102065.25
2023-03-01T19:38:47.926Z,102061.00
2023-03-01T19:41:33.966Z,102064.63
2023-03-01T19:44:24.679Z,102068.28
2023-03-01T19:47:10.614Z,102069.28
2023-03-01T19:49:56.321Z,102072.84
2023-03-01T19:52:43.330Z,102066.00
2023-03-01T19:55:29.073Z,102065.19
2023-03-01T19:58:15.032Z,102062.72
2023-03-01T20:01:01.598Z,102066.28
2023-03-01T20:03:48.127Z,102068.13
2023-03-01T20:06:34.582Z,102067.41
2023-03-01T20:09:22.708Z,102068.38
2023-03-01T20:12:09.010Z,102062.41
2023-03-01T20:14:56.314Z,102065.16
2023-03-01T20:17:42.036Z,102058.31
2023-03-01T20:20:27.920Z,102062.75
2023-03-01T20:23:13.690Z,102061.13
2023-03-01T20:26:04.651Z,102057.78
2023-03-01T20:28:51.620Z,102046.53
2023-03-01T20:31:39.676Z,102046.72
2023-03-01T20:34:25.848Z,102050.25
2023-03-01T20:37:11.985Z,102048.63
2023-03-01T20:39:58.127Z,102050.47
2023-03-01T20:42:45.157Z,102048.06
2023-03-01T20:45:30.864Z,102048.16
2023-03-01T20:48:16.829Z,102050.88
2023-03-01T20:51:05.483Z,102053.63
2023-03-01T20:53:51.305Z,102057.88
2023-03-01T20:56:37.718Z,102051.88
2023-03-01T20:59:25.414Z,102051.94
2023-03-01T21:02:11.227Z,102052.06
2023-03-01T21:04:56.935Z,102043.44
2023-03-01T21:07:43.420Z,102050.50
2023-03-01T21:10:29.754Z,102039.22
2023-03-01T21:13:15.553Z,102045.38
2023-03-01T21:16:04.499Z,102045.38
2023-03-01T21:18:50.623Z,102044.56
2023-03-01T21:21:36.876Z,102048.94
2023-03-01T21:24:22.837Z,102049.97
2023-03-01T21:27:08.667Z,102047.50
2023-03-01T21:29:54.515Z,102050.06
2023-03-01T21:32:41.612Z,102044.94
2023-03-01T21:35:28.192Z,102041.47
2023-03-01T21:38:13.812Z,102039.03
2023-03-01T21:40:59.584Z,102049.47
2023-03-01T21:43:45.866Z,102041.69
2023-03-01T21:46:33.156Z,102048.81
2023-03-01T21:49:20.792Z,102043.72
2023-03-01T21:52:06.654Z,102045.59
2023-03-01T21:54:52.826Z,102043.94
2023-03-01T21:57:44.278Z,102044.06
2023-03-01T22:00:29.973Z,102038.91
2023-03-01T22:03:16.018Z,102047.56
2023-03-01T22:06:03.297Z,102045.91
2023-03-01T22:08:49.593Z,102043.44
2023-03-01T22:11:36.121Z,102053.13
2023-03-01T22:14:22.275Z,102052.28
2023-03-01T22:17:08.217Z,102047.13
2023-03-01T22:19:53.870Z,102055.78
2023-03-01T22:22:41.070Z,102060.16
2023-03-01T22:25:27.150Z,102057.63
2023-03-01T22:28:13.154Z,102063.63
2023-03-01T22:30:58.838Z,102068.81
2023-03-01T22:33:44.595Z,102056.72
2023-03-01T22:36:30.528Z,102062.00
2023-03-01T22:39:18.897Z,102052.56
2023-03-01T22:42:05.980Z,102057.75
2023-03-01T22:44:51.794Z,102062.16
2023-03-01T22:47:38.532Z,102071.72
2023-03-01T22:50:24.632Z,102078.66
2023-03-01T22:53:10.508Z,102074.41
2023-03-01T22:55:57.918Z,102083.09
2023-03-01T22:58:44.321Z,102083.94
2023-03-01T23:01:30.562Z,102088.22
2023-03-01T23:04:16.718Z,102088.38
2023-03-01T23:07:02.741Z,102088.38
2023-03-01T23:09:51.120Z,102088.41
2023-03-01T23:12:38.592Z,102083.28
2023-03-01T23:15:24.182Z,102088.53
2023-03-01T23:18:10.517Z,102077.31
2023-03-01T23:20:56.411Z,102085.94
2023-03-01T23:23:42.814Z,102091.09
2023-03-01T23:26:30.574Z,102090.28
2023-03-01T23:29:18.492Z,102085.03
2023-03-01T23:32:04.723Z,102085.16
2023-03-01T23:34:51.231Z,102083.50
2023-03-01T23:37:37.487Z,102078.31
2023-03-01T23:40:23.186Z,102093.97
2023-03-01T23:43:09.215Z,102100.06
2023-03-01T23:45:56.485Z,102103.63
2023-03-01T23:48:42.962Z,102107.16
2023-03-01T23:51:29.120Z,102109.78
2023-03-01T23:54:16.873Z,102118.44
2023-03-01T23:57:02.832Z,102126.28
2023-03-01T23:59:48.621Z,102130.63
